Time,TemperatureF,DewpointF,PressureIn,WindDirection,WindDirectionDegrees,WindSpeedMPH,WindSpeedGustMPH,Humidity,HourlyPrecipIn,Conditions,Clouds,dailyrainin,SoftwareType,DateUTC
2013-08-20 00:12:00,79.0,61.0,29.62,East,85,0.0,0.0,54,0.00,,,0.00,,2013-08-20 05:12:00,
2013-08-20 00:22:00,78.0,61.0,29.62,East,85,0.0,0.0,55,0.00,,,0.00,,2013-08-20 05:22:00,
2013-08-20 00:42:00,79.0,61.0,29.62,East,85,0.0,2.0,54,0.00,,,0.00,,2013-08-20 05:42:00,
2013-08-20 00:52:00,79.0,60.0,29.62,East,86,0.0,2.0,53,0.00,,,0.00,,2013-08-20 05:52:00,
2013-08-20 01:11:00,78.0,61.0,29.62,ENE,69,0.0,3.0,55,0.00,,,0.00,,2013-08-20 06:11:00,
2013-08-20 01:21:00,77.0,61.0,29.62,ENE,71,0.0,2.0,57,0.00,,,0.00,,2013-08-20 06:21:00,
2013-08-20 01:42:00,77.0,61.0,29.62,ENE,63,0.0,2.0,57,0.00,,,0.00,,2013-08-20 06:42:00,
2013-08-20 01:52:00,77.0,60.0,29.62,ENE,60,0.0,1.0,56,0.00,,,0.00,,2013-08-20 06:52:00,
2013-08-20 02:11:00,76.0,61.0,29.62,ENE,60,0.0,0.0,59,0.00,,,0.00,,2013-08-20 07:11:00,
2013-08-20 02:22:00,75.0,61.0,29.62,ENE,60,0.0,0.0,61,0.00,,,0.00,,2013-08-20 07:22:00,
2013-08-20 02:42:00,74.0,61.0,29.62,ENE,60,0.0,1.0,63,0.00,,,0.00,,2013-08-20 07:42:00,
2013-08-20 02:52:00,74.0,61.0,29.62,ENE,60,0.0,1.0,63,0.00,,,0.00,,2013-08-20 07:52:00,
2013-08-20 03:11:00,74.0,61.0,29.62,ENE,60,0.0,1.0,64,0.00,,,0.00,,2013-08-20 08:11:00,
2013-08-20 03:21:00,74.0,61.0,29.62,ENE,60,0.0,1.0,65,0.00,,,0.00,,2013-08-20 08:21:00,
2013-08-20 03:52:00,74.0,61.0,29.62,ENE,71,0.0,2.0,65,0.00,,,0.00,,2013-08-20 08:52:00,
2013-08-20 04:11:00,74.0,62.0,29.62,East,90,0.0,3.0,67,0.00,,,0.00,,2013-08-20 09:11:00,
2013-08-20 04:21:00,74.0,62.0,29.62,East,101,0.0,3.0,66,0.00,,,0.00,,2013-08-20 09:21:00,
2013-08-20 04:42:00,74.0,62.0,29.63,East,101,0.0,2.0,67,0.00,,,0.00,,2013-08-20 09:42:00,
2013-08-20 04:53:00,74.0,62.0,29.63,East,101,0.0,2.0,67,0.00,,,0.00,,2013-08-20 09:53:00,
2013-08-20 05:12:00,73.0,63.0,29.63,East,101,0.0,0.0,70,0.00,,,0.00,,2013-08-20 10:12:00,
2013-08-20 05:22:00,72.0,62.0,29.62,East,101,0.0,0.0,71,0.00,,,0.00,,2013-08-20 10:22:00,
2013-08-20 05:42:00,71.0,62.0,29.63,East,101,0.0,0.0,72,0.00,,,0.00,,2013-08-20 10:42:00,
2013-08-20 05:52:00,71.0,62.0,29.63,East,101,0.0,0.0,74,0.00,,,0.00,,2013-08-20 10:52:00,
2013-08-20 06:11:00,71.0,63.0,29.63,East,101,0.0,0.0,76,0.00,,,0.00,,2013-08-20 11:11:00,
2013-08-20 06:22:00,71.0,63.0,29.64,East,101,0.0,0.0,75,0.00,,,0.00,,2013-08-20 11:22:00,
2013-08-20 06:42:00,70.0,62.0,29.65,East,101,0.0,0.0,77,0.00,,,0.00,,2013-08-20 11:42:00,
2013-08-20 06:52:00,70.0,62.0,29.65,East,101,0.0,0.0,77,0.00,,,0.00,,2013-08-20 11:52:00,
2013-08-20 07:12:00,70.0,63.0,29.65,East,101,0.0,0.0,79,0.00,,,0.00,,2013-08-20 12:12:00,
2013-08-20 07:21:00,70.0,64.0,29.66,East,101,0.0,0.0,80,0.00,,,0.00,,2013-08-20 12:21:00,
2013-08-20 07:42:00,70.0,63.0,29.66,East,101,0.0,0.0,79,0.00,,,0.00,,2013-08-20 12:42:00,
2013-08-20 07:52:00,70.0,64.0,29.67,East,101,0.0,0.0,80,0.00,,,0.00,,2013-08-20 12:52:00,
2013-08-20 08:11:00,71.0,64.0,29.67,East,101,0.0,0.0,79,0.00,,,0.00,,2013-08-20 13:11:00,
2013-08-20 08:22:00,73.0,65.0,29.67,ESE,123,0.0,4.0,75,0.00,,,0.00,,2013-08-20 13:22:00,
2013-08-20 08:42:00,74.0,65.0,29.67,ESE,123,0.0,3.0,73,0.00,,,0.00,,2013-08-20 13:42:00,
2013-08-20 08:52:00,74.0,64.0,29.68,SE,125,1.0,6.0,71,0.00,,,0.00,,2013-08-20 13:52:00,
2013-08-20 09:11:00,75.0,65.0,29.68,SE,135,1.0,3.0,70,0.00,,,0.00,,2013-08-20 14:11:00,
2013-08-20 09:21:00,77.0,65.0,29.68,ESE,123,1.0,6.0,67,0.00,,,0.00,,2013-08-20 14:21:00,
2013-08-20 09:42:00,77.0,64.0,29.68,SE,144,1.0,6.0,65,0.00,,,0.00,,2013-08-20 14:42:00,
2013-08-20 09:52:00,79.0,65.0,29.68,South,171,2.0,7.0,63,0.00,,,0.00,,2013-08-20 14:52:00,
2013-08-20 10:11:00,80.0,65.0,29.69,SE,132,0.0,7.0,61,0.00,,,0.00,,2013-08-20 15:11:00,
2013-08-20 10:22:00,82.0,66.0,29.69,South,181,1.0,4.0,58,0.00,,,0.00,,2013-08-20 15:22:00,
2013-08-20 10:43:00,83.0,64.0,29.69,SSE,163,1.0,5.0,53,0.00,,,0.00,,2013-08-20 15:43:00,
2013-08-20 10:53:00,85.0,64.0,29.69,SW,232,2.0,6.0,49,0.00,,,0.00,,2013-08-20 15:53:00,
2013-08-20 11:15:00,86.0,62.0,29.69,South,187,2.0,5.0,45,0.00,,,0.00,,2013-08-20 16:15:00,
2013-08-20 11:30:00,-999.0,-99.9,29.69,SW,231,4.0,8.0,41,0.00,,,0.00,,2013-08-20 16:30:00,
2013-08-20 11:42:00,89.0,61.0,29.69,SW,216,2.0,8.0,40,0.00,,,0.00,,2013-08-20 16:42:00,
2013-08-20 11:53:00,89.0,61.0,29.69,SW,219,4.0,10.0,39,0.00,,,0.00,,2013-08-20 16:53:00,
2013-08-20 12:12:00,90.0,62.0,29.68,SW,223,1.0,8.0,39,0.00,,,0.00,,2013-08-20 17:12:00,
2013-08-20 12:24:00,92.0,62.0,29.68,SSE,156,2.0,7.0,37,0.00,,,0.00,,2013-08-20 17:24:00,
2013-08-20 12:43:00,91.0,60.0,29.68,SSE,148,2.0,6.0,36,0.00,,,0.00,,2013-08-20 17:43:00,
2013-08-20 12:52:00,93.0,61.0,29.67,ESE,114,4.0,10.0,35,0.00,,,0.00,,2013-08-20 17:52:00,
2013-08-20 13:12:00,94.0,62.0,29.67,ENE,63,2.0,10.0,35,0.00,,,0.00,,2013-08-20 18:12:00,
2013-08-20 13:22:00,94.0,62.0,29.67,ENE,63,2.0,10.0,35,0.00,,,0.00,,2013-08-20 18:22:00,
2013-08-20 13:52:00,92.0,59.0,29.65,East,101,2.0,8.0,33,0.00,,,0.00,,2013-08-20 18:52:00,
2013-08-20 14:11:00,95.0,60.0,29.65,East,98,3.0,7.0,32,0.00,,,0.00,,2013-08-20 19:11:00,
2013-08-20 14:21:00,93.0,60.0,29.65,NE,40,1.0,8.0,34,0.00,,,0.00,,2013-08-20 19:21:00,
2013-08-20 14:42:00,93.0,60.0,29.64,ENE,76,1.0,7.0,34,0.00,,,0.00,,2013-08-20 19:42:00,
2013-08-20 14:53:00,93.0,60.0,29.64,East,91,4.0,9.0,33,0.00,,,0.00,,2013-08-20 19:53:00,
2013-08-20 15:12:00,95.0,60.0,29.64,ESE,117,5.0,9.0,31,0.00,,,0.00,,2013-08-20 20:12:00,
2013-08-20 15:22:00,96.0,61.0,29.63,SSE,152,0.0,7.0,32,0.00,,,0.00,,2013-08-20 20:22:00,
2013-08-20 15:42:00,96.0,59.0,29.62,ESE,112,3.0,9.0,29,0.00,,,0.00,,2013-08-20 20:42:00,
2013-08-20 15:52:00,96.0,59.0,29.62,South,181,3.0,10.0,29,0.00,,,0.00,,2013-08-20 20:52:00,
2013-08-20 16:11:00,96.0,59.0,29.62,East,84,1.0,11.0,30,0.00,,,0.00,,2013-08-20 21:11:00,
2013-08-20 16:22:00,95.0,58.0,29.61,East,79,2.0,8.0,29,0.00,,,0.00,,2013-08-20 21:22:00,
2013-08-20 16:44:00,96.0,59.0,29.61,East,99,4.0,9.0,30,0.00,,,0.00,,2013-08-20 21:44:00,
2013-08-20 16:55:00,96.0,59.0,29.61,NNW,333,0.0,5.0,30,0.00,,,0.00,,2013-08-20 21:55:00,
2013-08-20 17:14:00,97.0,60.0,29.61,SE,130,5.0,11.0,30,0.00,,,0.00,,2013-08-20 22:14:00,
2013-08-20 17:24:00,96.0,58.0,29.60,East,87,3.0,8.0,28,0.00,,,0.00,,2013-08-20 22:24:00,
2013-08-20 17:42:00,95.0,57.0,29.60,SE,130,1.0,4.0,28,0.00,,,0.00,,2013-08-20 22:42:00,
2013-08-20 17:53:00,95.0,59.0,29.59,ESE,110,3.0,7.0,30,0.00,,,0.00,,2013-08-20 22:53:00,
2013-08-20 18:12:00,94.0,57.0,29.59,East,98,1.0,4.0,29,0.00,,,0.00,,2013-08-20 23:12:00,
2013-08-20 18:22:00,94.0,57.0,29.59,ESE,105,3.0,7.0,29,0.00,,,0.00,,2013-08-20 23:22:00,
2013-08-20 18:42:00,94.0,58.0,29.59,East,93,2.0,10.0,30,0.00,,,0.00,,2013-08-20 23:42:00,
2013-08-20 18:53:00,94.0,60.0,29.59,East,98,4.0,8.0,32,0.00,,,0.00,,2013-08-20 23:53:00,
2013-08-20 19:12:00,93.0,59.0,29.59,SE,134,2.0,7.0,32,0.00,,,0.00,,2013-08-21 00:12:00,
2013-08-20 19:22:00,92.0,60.0,29.59,ESE,115,3.0,7.0,34,0.00,,,0.00,,2013-08-21 00:22:00,
2013-08-20 19:42:00,92.0,60.0,29.59,ESE,109,5.0,9.0,35,0.00,,,0.00,,2013-08-21 00:42:00,
2013-08-20 19:52:00,91.0,59.0,29.59,ESE,113,1.0,8.0,35,0.00,,,0.00,,2013-08-21 00:52:00,
2013-08-20 20:11:00,91.0,60.0,29.59,ESE,108,2.0,5.0,36,0.00,,,0.00,,2013-08-21 01:11:00,
2013-08-20 20:22:00,90.0,60.0,29.59,ESE,108,0.0,6.0,37,0.00,,,0.00,,2013-08-21 01:22:00,
2013-08-20 20:42:00,88.0,61.0,29.59,East,101,0.0,2.0,40,0.00,,,0.00,,2013-08-21 01:42:00,
2013-08-20 20:52:00,87.0,61.0,29.59,East,101,0.0,2.0,42,0.00,,,0.00,,2013-08-21 01:52:00,
2013-08-20 21:12:00,86.0,61.0,29.59,East,84,0.0,5.0,43,0.00,,,0.00,,2013-08-21 02:12:00,
2013-08-20 21:22:00,86.0,61.0,29.60,East,93,0.0,3.0,43,0.00,,,0.00,,2013-08-21 02:22:00,
2013-08-20 21:42:00,85.0,62.0,29.60,East,93,0.0,0.0,46,0.00,,,0.00,,2013-08-21 02:42:00,
2013-08-20 21:52:00,83.0,62.0,29.61,East,93,0.0,1.0,49,0.00,,,0.00,,2013-08-21 02:52:00,
2013-08-20 22:12:00,83.0,62.0,29.61,East,93,0.0,1.0,49,0.00,,,0.00,,2013-08-21 03:12:00,
2013-08-20 22:23:00,83.0,63.0,29.62,East,93,0.0,0.0,51,0.00,,,0.00,,2013-08-21 03:23:00,
2013-08-20 22:44:00,82.0,63.0,29.63,East,93,0.0,1.0,52,0.00,,,0.00,,2013-08-21 03:44:00,
2013-08-20 22:55:00,81.0,63.0,29.63,East,93,0.0,0.0,54,0.00,,,0.00,,2013-08-21 03:55:00,
2013-08-20 23:14:00,80.0,62.0,29.63,East,93,0.0,0.0,55,0.00,,,0.00,,2013-08-21 04:14:00,
2013-08-20 23:24:00,80.0,62.0,29.63,East,93,0.0,0.0,55,0.00,,,0.00,,2013-08-21 04:24:00,
2013-08-20 23:44:00,80.0,63.0,29.64,East,93,0.0,1.0,56,0.00,,,0.00,,2013-08-21 04:44:00,
2013-08-20 23:54:00,80.0,63.0,29.64,East,93,0.0,0.0,56,0.00,,,0.00,,2013-08-21 04:54:00,